sensor_id;sensor_type;location;lat;lon;timestamp;temperature;humidity
3713;DHT22;1872;51.406;6.856;2022-12-18T00:01:51;-3.30;99.90
3713;DHT22;1872;51.406;6.856;2022-12-18T00:04:22;-3.30;99.90
3713;DHT22;1872;51.406;6.856;2022-12-18T00:06:49;-3.30;99.90
3713;DHT22;1872;51.406;6.856;2022-12-18T00:09:15;-3.30;99.90
3713;DHT22;1872;51.406;6.856;2022-12-18T00:11:41;-3.30;99.90
3713;DHT22;1872;51.406;6.856;2022-12-18T00:14:06;-3.30;99.90
3713;DHT22;1872;51.406;6.856;2022-12-18T00:16:32;-3.40;99.90
3713;DHT22;1872;51.406;6.856;2022-12-18T00:19:00;-3.40;99.90
3713;DHT22;1872;51.406;6.856;2022-12-18T00:21:27;-3.40;99.90
3713;DHT22;1872;51.406;6.856;2022-12-18T00:23:53;-3.40;99.90
3713;DHT22;1872;51.406;6.856;2022-12-18T00:26:21;-3.40;99.90
3713;DHT22;1872;51.406;6.856;2022-12-18T00:28:48;-3.40;99.90
3713;DHT22;1872;51.406;6.856;2022-12-18T00:31:17;-3.50;99.90
3713;DHT22;1872;51.406;6.856;2022-12-18T00:33:43;-3.50;99.90
3713;DHT22;1872;51.406;6.856;2022-12-18T00:36:16;-3.50;99.90
3713;DHT22;1872;51.406;6.856;2022-12-18T00:38:43;-3.50;99.90
3713;DHT22;1872;51.406;6.856;2022-12-18T00:41:10;-3.40;99.90
3713;DHT22;1872;51.406;6.856;2022-12-18T00:43:36;-3.40;99.90
3713;DHT22;1872;51.406;6.856;2022-12-18T00:46:03;-3.40;99.90
3713;DHT22;1872;51.406;6.856;2022-12-18T00:48:29;-3.40;99.90
3713;DHT22;1872;51.406;6.856;2022-12-18T00:50:55;-3.40;99.90
3713;DHT22;1872;51.406;6.856;2022-12-18T00:53:20;-3.40;99.90
3713;DHT22;1872;51.406;6.856;2022-12-18T00:55:46;-3.40;99.90
3713;DHT22;1872;51.406;6.856;2022-12-18T00:58:15;-3.50;99.90
3713;DHT22;1872;51.406;6.856;2022-12-18T01:00:41;-3.50;99.90
3713;DHT22;1872;51.406;6.856;2022-12-18T01:03:07;-3.50;99.90
3713;DHT22;1872;51.406;6.856;2022-12-18T01:05:33;-3.50;99.90
3713;DHT22;1872;51.406;6.856;2022-12-18T01:07:59;-3.50;99.90
3713;DHT22;1872;51.406;6.856;2022-12-18T01:10:25;-3.50;99.90
3713;DHT22;1872;51.406;6.856;2022-12-18T01:12:51;-3.50;99.90
3713;DHT22;1872;51.406;6.856;2022-12-18T01:15:18;-3.50;99.90
3713;DHT22;1872;51.406;6.856;2022-12-18T01:17:44;-3.50;99.90
3713;DHT22;1872;51.406;6.856;2022-12-18T01:20:11;-3.40;99.90
3713;DHT22;1872;51.406;6.856;2022-12-18T01:22:37;-3.50;99.90
3713;DHT22;1872;51.406;6.856;2022-12-18T01:25:03;-3.50;99.90
3713;DHT22;1872;51.406;6.856;2022-12-18T01:27:30;-3.50;99.90
3713;DHT22;1872;51.406;6.856;2022-12-18T01:29:55;-3.50;99.90
3713;DHT22;1872;51.406;6.856;2022-12-18T01:32:24;-3.50;99.90
3713;DHT22;1872;51.406;6.856;2022-12-18T01:34:50;-3.50;99.90
3713;DHT22;1872;51.406;6.856;2022-12-18T01:37:16;-3.40;99.90
3713;DHT22;1872;51.406;6.856;2022-12-18T01:39:41;-3.40;99.90
3713;DHT22;1872;51.406;6.856;2022-12-18T01:42:14;-3.40;99.90
3713;DHT22;1872;51.406;6.856;2022-12-18T01:48:06;-3.20;99.90
3713;DHT22;1872;51.406;6.856;2022-12-18T01:51:01;-3.10;99.90
3713;DHT22;1872;51.406;6.856;2022-12-18T01:53:22;-3.00;99.90
3713;DHT22;1872;51.406;6.856;2022-12-18T01:55:54;-3.10;99.90
3713;DHT22;1872;51.406;6.856;2022-12-18T02:01:15;-3.10;99.90
3713;DHT22;1872;51.406;6.856;2022-12-18T02:03:43;-3.10;99.90
3713;DHT22;1872;51.406;6.856;2022-12-18T02:14:08;-3.30;99.90
3713;DHT22;1872;51.406;6.856;2022-12-18T02:16:51;-3.30;99.90
3713;DHT22;1872;51.406;6.856;2022-12-18T02:22:02;-3.20;99.90
3713;DHT22;1872;51.406;6.856;2022-12-18T02:24:54;-3.20;99.90
3713;DHT22;1872;51.406;6.856;2022-12-18T02:27:24;-3.10;99.90
3713;DHT22;1872;51.406;6.856;2022-12-18T02:30:00;-3.00;99.90
3713;DHT22;1872;51.406;6.856;2022-12-18T02:32:39;-2.90;99.90
3713;DHT22;1872;51.406;6.856;2022-12-18T02:35:08;-2.90;99.90
3713;DHT22;1872;51.406;6.856;2022-12-18T02:37:35;-2.80;99.90
3713;DHT22;1872;51.406;6.856;2022-12-18T02:40:04;-2.80;99.90
3713;DHT22;1872;51.406;6.856;2022-12-18T02:42:30;-2.70;99.90
3713;DHT22;1872;51.406;6.856;2022-12-18T02:44:56;-2.70;99.90
3713;DHT22;1872;51.406;6.856;2022-12-18T02:47:24;-2.70;99.90
3713;DHT22;1872;51.406;6.856;2022-12-18T02:55:01;-2.70;99.90
3713;DHT22;1872;51.406;6.856;2022-12-18T02:57:49;-2.70;99.90
3713;DHT22;1872;51.406;6.856;2022-12-18T03:00:30;-2.70;99.90
3713;DHT22;1872;51.406;6.856;2022-12-18T03:02:59;-2.70;99.90
3713;DHT22;1872;51.406;6.856;2022-12-18T03:05:38;-2.70;99.90
3713;DHT22;1872;51.406;6.856;2022-12-18T03:08:12;-2.80;99.90
3713;DHT22;1872;51.406;6.856;2022-12-18T03:10:44;-2.80;99.90
3713;DHT22;1872;51.406;6.856;2022-12-18T03:13:21;-2.80;99.90
3713;DHT22;1872;51.406;6.856;2022-12-18T03:15:52;-2.80;99.90
3713;DHT22;1872;51.406;6.856;2022-12-18T03:18:46;-2.80;99.90
3713;DHT22;1872;51.406;6.856;2022-12-18T03:21:13;-2.70;99.90
3713;DHT22;1872;51.406;6.856;2022-12-18T03:23:44;-2.60;99.90
3713;DHT22;1872;51.406;6.856;2022-12-18T03:26:16;-2.60;99.90
3713;DHT22;1872;51.406;6.856;2022-12-18T03:28:46;-2.50;99.90
3713;DHT22;1872;51.406;6.856;2022-12-18T03:31:14;-2.50;99.90
3713;DHT22;1872;51.406;6.856;2022-12-18T03:36:12;-2.50;99.90
3713;DHT22;1872;51.406;6.856;2022-12-18T03:38:38;-2.40;99.90
3713;DHT22;1872;51.406;6.856;2022-12-18T03:41:32;-2.40;99.90
3713;DHT22;1872;51.406;6.856;2022-12-18T03:44:30;-2.40;99.90
3713;DHT22;1872;51.406;6.856;2022-12-18T03:49:25;-2.40;99.90
3713;DHT22;1872;51.406;6.856;2022-12-18T03:52:04;-2.40;99.90
3713;DHT22;1872;51.406;6.856;2022-12-18T03:54:32;-2.40;99.90
3713;DHT22;1872;51.406;6.856;2022-12-18T03:57:04;-2.40;99.90
3713;DHT22;1872;51.406;6.856;2022-12-18T03:59:33;-2.40;99.90
3713;DHT22;1872;51.406;6.856;2022-12-18T04:02:01;-2.40;99.90
3713;DHT22;1872;51.406;6.856;2022-12-18T04:04:29;-2.50;99.90
3713;DHT22;1872;51.406;6.856;2022-12-18T04:06:56;-2.50;99.90
3713;DHT22;1872;51.406;6.856;2022-12-18T04:09:23;-2.50;99.90
3713;DHT22;1872;51.406;6.856;2022-12-18T04:11:48;-2.50;99.90
3713;DHT22;1872;51.406;6.856;2022-12-18T04:14:14;-2.50;99.90
3713;DHT22;1872;51.406;6.856;2022-12-18T04:16:40;-2.60;99.90
3713;DHT22;1872;51.406;6.856;2022-12-18T04:19:05;-2.60;99.90
3713;DHT22;1872;51.406;6.856;2022-12-18T04:21:31;-2.60;99.90
3713;DHT22;1872;51.406;6.856;2022-12-18T04:23:57;-2.60;99.90
3713;DHT22;1872;51.406;6.856;2022-12-18T04:26:22;-2.60;99.90
3713;DHT22;1872;51.406;6.856;2022-12-18T04:28:48;-2.60;99.90
3713;DHT22;1872;51.406;6.856;2022-12-18T04:31:14;-2.50;99.90
3713;DHT22;1872;51.406;6.856;2022-12-18T04:33:39;-2.50;99.90
3713;DHT22;1872;51.406;6.856;2022-12-18T04:36:05;-2.50;99.90
3713;DHT22;1872;51.406;6.856;2022-12-18T04:38:31;-2.50;99.90
3713;DHT22;1872;51.406;6.856;2022-12-18T04:40:57;-2.50;99.90
3713;DHT22;1872;51.406;6.856;2022-12-18T04:43:22;-2.40;99.90
3713;DHT22;1872;51.406;6.856;2022-12-18T04:45:48;-2.40;99.90
3713;DHT22;1872;51.406;6.856;2022-12-18T04:48:14;-2.40;99.90
3713;DHT22;1872;51.406;6.856;2022-12-18T04:50:39;-2.40;99.90
3713;DHT22;1872;51.406;6.856;2022-12-18T04:53:05;-2.40;99.90
3713;DHT22;1872;51.406;6.856;2022-12-18T04:55:31;-2.40;99.90
3713;DHT22;1872;51.406;6.856;2022-12-18T04:57:56;-2.40;99.90
3713;DHT22;1872;51.406;6.856;2022-12-18T05:00:22;-2.50;99.90
3713;DHT22;1872;51.406;6.856;2022-12-18T05:02:48;-2.50;99.90
3713;DHT22;1872;51.406;6.856;2022-12-18T05:05:14;-2.50;99.90
3713;DHT22;1872;51.406;6.856;2022-12-18T05:07:40;-2.40;99.90
3713;DHT22;1872;51.406;6.856;2022-12-18T05:10:09;-2.40;99.90
3713;DHT22;1872;51.406;6.856;2022-12-18T05:12:35;-2.40;99.90
3713;DHT22;1872;51.406;6.856;2022-12-18T05:15:20;-2.40;99.90
3713;DHT22;1872;51.406;6.856;2022-12-18T05:17:46;-2.40;99.90
3713;DHT22;1872;51.406;6.856;2022-12-18T05:20:12;-2.40;99.90
3713;DHT22;1872;51.406;6.856;2022-12-18T05:22:37;-2.40;99.90
3713;DHT22;1872;51.406;6.856;2022-12-18T05:25:03;-2.40;99.90
3713;DHT22;1872;51.406;6.856;2022-12-18T05:27:29;-2.40;99.90
3713;DHT22;1872;51.406;6.856;2022-12-18T05:29:55;-2.30;99.90
3713;DHT22;1872;51.406;6.856;2022-12-18T05:32:21;-2.30;99.90
3713;DHT22;1872;51.406;6.856;2022-12-18T05:34:46;-2.30;99.90
3713;DHT22;1872;51.406;6.856;2022-12-18T05:37:12;-2.40;99.90
3713;DHT22;1872;51.406;6.856;2022-12-18T05:39:38;-2.40;99.90
3713;DHT22;1872;51.406;6.856;2022-12-18T05:42:04;-2.50;99.90
3713;DHT22;1872;51.406;6.856;2022-12-18T05:44:29;-2.50;99.90
3713;DHT22;1872;51.406;6.856;2022-12-18T05:46:55;-2.50;99.90
3713;DHT22;1872;51.406;6.856;2022-12-18T05:49:20;-2.50;99.90
3713;DHT22;1872;51.406;6.856;2022-12-18T05:51:47;-2.60;99.90
3713;DHT22;1872;51.406;6.856;2022-12-18T05:54:13;-2.60;99.90
3713;DHT22;1872;51.406;6.856;2022-12-18T05:56:38;-2.60;99.90
3713;DHT22;1872;51.406;6.856;2022-12-18T05:59:04;-2.60;99.90
3713;DHT22;1872;51.406;6.856;2022-12-18T06:01:30;-2.60;99.90
3713;DHT22;1872;51.406;6.856;2022-12-18T06:03:55;-2.60;99.90
3713;DHT22;1872;51.406;6.856;2022-12-18T06:06:24;-2.60;99.90
3713;DHT22;1872;51.406;6.856;2022-12-18T06:08:50;-2.60;99.90
3713;DHT22;1872;51.406;6.856;2022-12-18T06:11:24;-2.60;99.90
3713;DHT22;1872;51.406;6.856;2022-12-18T06:13:52;-2.60;99.90
3713;DHT22;1872;51.406;6.856;2022-12-18T06:16:18;-2.60;99.90
3713;DHT22;1872;51.406;6.856;2022-12-18T06:18:44;-2.60;99.90
3713;DHT22;1872;51.406;6.856;2022-12-18T06:21:09;-2.50;99.90
3713;DHT22;1872;51.406;6.856;2022-12-18T06:23:35;-2.60;99.90
3713;DHT22;1872;51.406;6.856;2022-12-18T06:26:09;-2.60;99.90
3713;DHT22;1872;51.406;6.856;2022-12-18T06:28:35;-2.60;99.90
3713;DHT22;1872;51.406;6.856;2022-12-18T06:31:03;-2.60;99.90
3713;DHT22;1872;51.406;6.856;2022-12-18T06:33:29;-2.60;99.90
3713;DHT22;1872;51.406;6.856;2022-12-18T06:36:00;-2.60;99.90
3713;DHT22;1872;51.406;6.856;2022-12-18T06:38:28;-2.50;99.90
3713;DHT22;1872;51.406;6.856;2022-12-18T06:40:53;-2.60;99.90
3713;DHT22;1872;51.406;6.856;2022-12-18T06:43:19;-2.60;99.90
3713;DHT22;1872;51.406;6.856;2022-12-18T06:45:45;-2.60;99.90
3713;DHT22;1872;51.406;6.856;2022-12-18T06:48:12;-2.50;99.90
3713;DHT22;1872;51.406;6.856;2022-12-18T06:50:42;-2.50;99.90
3713;DHT22;1872;51.406;6.856;2022-12-18T06:53:08;-2.50;99.90
3713;DHT22;1872;51.406;6.856;2022-12-18T06:55:33;-2.40;99.90
3713;DHT22;1872;51.406;6.856;2022-12-18T06:57:59;-2.40;99.90
3713;DHT22;1872;51.406;6.856;2022-12-18T07:00:25;-2.30;99.90
3713;DHT22;1872;51.406;6.856;2022-12-18T07:02:50;-2.30;99.90
3713;DHT22;1872;51.406;6.856;2022-12-18T07:05:16;-2.20;99.90
3713;DHT22;1872;51.406;6.856;2022-12-18T07:07:42;-2.10;99.90
3713;DHT22;1872;51.406;6.856;2022-12-18T07:10:08;-2.10;99.90
3713;DHT22;1872;51.406;6.856;2022-12-18T07:12:33;-2.10;99.90
3713;DHT22;1872;51.406;6.856;2022-12-18T07:15:00;-2.00;99.90
3713;DHT22;1872;51.406;6.856;2022-12-18T07:17:26;-2.00;99.90
3713;DHT22;1872;51.406;6.856;2022-12-18T07:19:51;-2.00;99.90
3713;DHT22;1872;51.406;6.856;2022-12-18T07:22:17;-2.00;99.90
3713;DHT22;1872;51.406;6.856;2022-12-18T07:24:43;-2.00;99.90
3713;DHT22;1872;51.406;6.856;2022-12-18T07:27:08;-2.10;99.90
3713;DHT22;1872;51.406;6.856;2022-12-18T07:29:34;-2.10;99.90
3713;DHT22;1872;51.406;6.856;2022-12-18T07:32:00;-2.10;99.90
3713;DHT22;1872;51.406;6.856;2022-12-18T07:34:25;-2.10;99.90
3713;DHT22;1872;51.406;6.856;2022-12-18T07:36:51;-2.10;99.90
3713;DHT22;1872;51.406;6.856;2022-12-18T07:39:17;-2.10;99.90
3713;DHT22;1872;51.406;6.856;2022-12-18T07:41:42;-2.10;99.90
3713;DHT22;1872;51.406;6.856;2022-12-18T07:44:12;-2.00;99.90
3713;DHT22;1872;51.406;6.856;2022-12-18T07:46:38;-2.00;99.90
3713;DHT22;1872;51.406;6.856;2022-12-18T07:49:04;-1.90;99.90
3713;DHT22;1872;51.406;6.856;2022-12-18T07:51:29;-1.90;99.90
3713;DHT22;1872;51.406;6.856;2022-12-18T07:53:56;-1.80;99.90
3713;DHT22;1872;51.406;6.856;2022-12-18T07:56:22;-1.70;99.90
3713;DHT22;1872;51.406;6.856;2022-12-18T07:58:48;-1.70;99.90
3713;DHT22;1872;51.406;6.856;2022-12-18T08:01:13;-1.70;99.90
3713;DHT22;1872;51.406;6.856;2022-12-18T08:03:40;-1.70;99.90
3713;DHT22;1872;51.406;6.856;2022-12-18T08:06:08;-1.60;99.90
3713;DHT22;1872;51.406;6.856;2022-12-18T08:08:35;-1.60;99.90
3713;DHT22;1872;51.406;6.856;2022-12-18T08:11:00;-1.50;99.90
3713;DHT22;1872;51.406;6.856;2022-12-18T08:13:27;-1.40;99.90
3713;DHT22;1872;51.406;6.856;2022-12-18T08:16:05;-1.40;99.90
3713;DHT22;1872;51.406;6.856;2022-12-18T08:18:36;-1.30;99.90
3713;DHT22;1872;51.406;6.856;2022-12-18T08:23:38;-1.20;99.90
3713;DHT22;1872;51.406;6.856;2022-12-18T08:26:04;-1.10;99.90
3713;DHT22;1872;51.406;6.856;2022-12-18T08:28:30;-1.00;99.90
3713;DHT22;1872;51.406;6.856;2022-12-18T08:30:57;-1.00;99.90
3713;DHT22;1872;51.406;6.856;2022-12-18T08:33:24;-0.90;99.90
3713;DHT22;1872;51.406;6.856;2022-12-18T08:35:50;-0.80;99.90
3713;DHT22;1872;51.406;6.856;2022-12-18T08:38:16;-0.70;99.90
3713;DHT22;1872;51.406;6.856;2022-12-18T08:40:41;-0.70;99.90
3713;DHT22;1872;51.406;6.856;2022-12-18T08:43:09;-0.60;99.90
3713;DHT22;1872;51.406;6.856;2022-12-18T08:45:54;-0.60;99.90
3713;DHT22;1872;51.406;6.856;2022-12-18T08:48:20;-0.50;99.90
3713;DHT22;1872;51.406;6.856;2022-12-18T08:50:56;-0.40;99.90
3713;DHT22;1872;51.406;6.856;2022-12-18T08:53:26;-0.30;99.90
3713;DHT22;1872;51.406;6.856;2022-12-18T08:55:52;-0.30;99.90
3713;DHT22;1872;51.406;6.856;2022-12-18T08:58:18;-0.30;99.90
3713;DHT22;1872;51.406;6.856;2022-12-18T09:00:44;-0.20;99.90
3713;DHT22;1872;51.406;6.856;2022-12-18T09:03:17;-0.20;99.90
3713;DHT22;1872;51.406;6.856;2022-12-18T09:05:45;-0.10;99.90
3713;DHT22;1872;51.406;6.856;2022-12-18T09:08:11;-0.10;99.90
3713;DHT22;1872;51.406;6.856;2022-12-18T09:10:44;0.00;99.90
3713;DHT22;1872;51.406;6.856;2022-12-18T09:13:12;0.00;99.90
3713;DHT22;1872;51.406;6.856;2022-12-18T09:15:49;0.10;99.90
3713;DHT22;1872;51.406;6.856;2022-12-18T09:18:17;0.10;99.90
3713;DHT22;1872;51.406;6.856;2022-12-18T09:20:43;0.20;99.90
3713;DHT22;1872;51.406;6.856;2022-12-18T09:23:09;0.20;99.90
3713;DHT22;1872;51.406;6.856;2022-12-18T09:25:35;0.30;99.90
3713;DHT22;1872;51.406;6.856;2022-12-18T09:28:22;0.30;99.90
3713;DHT22;1872;51.406;6.856;2022-12-18T09:30:48;0.30;99.90
3713;DHT22;1872;51.406;6.856;2022-12-18T09:33:15;0.40;99.90
3713;DHT22;1872;51.406;6.856;2022-12-18T09:35:42;0.50;99.90
3713;DHT22;1872;51.406;6.856;2022-12-18T09:38:12;0.50;99.90
3713;DHT22;1872;51.406;6.856;2022-12-18T09:40:48;0.60;99.90
3713;DHT22;1872;51.406;6.856;2022-12-18T09:43:26;0.60;99.90
3713;DHT22;1872;51.406;6.856;2022-12-18T09:45:57;0.70;99.90
3713;DHT22;1872;51.406;6.856;2022-12-18T09:48:34;0.70;99.90
3713;DHT22;1872;51.406;6.856;2022-12-18T09:51:14;0.70;99.90
3713;DHT22;1872;51.406;6.856;2022-12-18T09:53:44;0.80;99.90
3713;DHT22;1872;51.406;6.856;2022-12-18T09:56:19;0.80;99.90
3713;DHT22;1872;51.406;6.856;2022-12-18T09:59:14;0.90;99.90
3713;DHT22;1872;51.406;6.856;2022-12-18T10:01:43;0.90;99.90
3713;DHT22;1872;51.406;6.856;2022-12-18T10:04:11;1.00;99.90
3713;DHT22;1872;51.406;6.856;2022-12-18T10:07:04;1.00;99.90
3713;DHT22;1872;51.406;6.856;2022-12-18T10:09:37;1.10;99.90
3713;DHT22;1872;51.406;6.856;2022-12-18T10:12:23;1.10;99.90
3713;DHT22;1872;51.406;6.856;2022-12-18T10:20:34;1.30;99.90
3713;DHT22;1872;51.406;6.856;2022-12-18T10:23:33;1.40;99.90
3713;DHT22;1872;51.406;6.856;2022-12-18T10:26:03;1.50;99.90
3713;DHT22;1872;51.406;6.856;2022-12-18T10:28:30;1.50;99.90
3713;DHT22;1872;51.406;6.856;2022-12-18T10:30:57;1.60;99.90
3713;DHT22;1872;51.406;6.856;2022-12-18T10:33:27;1.60;99.90
3713;DHT22;1872;51.406;6.856;2022-12-18T10:35:54;1.70;99.90
3713;DHT22;1872;51.406;6.856;2022-12-18T10:38:26;1.70;99.90
3713;DHT22;1872;51.406;6.856;2022-12-18T10:40:56;1.70;99.90
3713;DHT22;1872;51.406;6.856;2022-12-18T10:43:23;1.70;99.90
3713;DHT22;1872;51.406;6.856;2022-12-18T10:46:02;1.80;99.90
3713;DHT22;1872;51.406;6.856;2022-12-18T10:48:28;1.80;99.90
3713;DHT22;1872;51.406;6.856;2022-12-18T10:50:55;1.80;99.90
3713;DHT22;1872;51.406;6.856;2022-12-18T10:53:24;1.90;99.90
3713;DHT22;1872;51.406;6.856;2022-12-18T10:55:53;1.90;99.90
3713;DHT22;1872;51.406;6.856;2022-12-18T10:58:36;1.90;99.90
3713;DHT22;1872;51.406;6.856;2022-12-18T11:01:03;2.00;99.90
3713;DHT22;1872;51.406;6.856;2022-12-18T11:06:23;1.90;99.90
3713;DHT22;1872;51.406;6.856;2022-12-18T11:09:02;1.90;99.90
3713;DHT22;1872;51.406;6.856;2022-12-18T11:11:28;2.00;99.90
3713;DHT22;1872;51.406;6.856;2022-12-18T11:16:26;2.00;99.90
3713;DHT22;1872;51.406;6.856;2022-12-18T11:18:52;2.00;99.90
3713;DHT22;1872;51.406;6.856;2022-12-18T11:21:18;2.10;99.90
3713;DHT22;1872;51.406;6.856;2022-12-18T11:23:50;2.00;99.90
3713;DHT22;1872;51.406;6.856;2022-12-18T11:26:16;2.10;99.90
3713;DHT22;1872;51.406;6.856;2022-12-18T11:28:52;2.20;99.90
3713;DHT22;1872;51.406;6.856;2022-12-18T11:31:32;2.20;99.90
3713;DHT22;1872;51.406;6.856;2022-12-18T11:34:05;2.20;99.90
3713;DHT22;1872;51.406;6.856;2022-12-18T11:36:43;2.20;99.90
3713;DHT22;1872;51.406;6.856;2022-12-18T11:44:57;2.30;99.90
3713;DHT22;1872;51.406;6.856;2022-12-18T11:47:28;2.40;99.90
3713;DHT22;1872;51.406;6.856;2022-12-18T11:49:59;2.40;99.90
3713;DHT22;1872;51.406;6.856;2022-12-18T11:52:36;2.40;99.90
3713;DHT22;1872;51.406;6.856;2022-12-18T11:55:14;2.50;99.90
3713;DHT22;1872;51.406;6.856;2022-12-18T11:57:55;2.50;99.90
3713;DHT22;1872;51.406;6.856;2022-12-18T12:00:24;2.40;99.90
3713;DHT22;1872;51.406;6.856;2022-12-18T12:03:15;2.40;99.90
3713;DHT22;1872;51.406;6.856;2022-12-18T12:11:01;2.50;99.90
3713;DHT22;1872;51.406;6.856;2022-12-18T12:16:45;2.40;99.90
3713;DHT22;1872;51.406;6.856;2022-12-18T12:19:33;2.40;99.90
3713;DHT22;1872;51.406;6.856;2022-12-18T12:22:37;2.40;99.90
3713;DHT22;1872;51.406;6.856;2022-12-18T12:33:52;2.40;99.90
3713;DHT22;1872;51.406;6.856;2022-12-18T12:36:48;2.40;99.90
3713;DHT22;1872;51.406;6.856;2022-12-18T12:39:24;2.30;99.90
3713;DHT22;1872;51.406;6.856;2022-12-18T12:41:55;2.30;99.90
3713;DHT22;1872;51.406;6.856;2022-12-18T12:44:46;2.40;99.90
3713;DHT22;1872;51.406;6.856;2022-12-18T12:47:23;2.30;99.90
3713;DHT22;1872;51.406;6.856;2022-12-18T12:49:50;2.30;99.90
3713;DHT22;1872;51.406;6.856;2022-12-18T12:52:37;2.30;99.90
3713;DHT22;1872;51.406;6.856;2022-12-18T12:55:27;2.30;99.90
3713;DHT22;1872;51.406;6.856;2022-12-18T12:58:27;2.30;99.90
3713;DHT22;1872;51.406;6.856;2022-12-18T13:01:27;2.40;99.90
3713;DHT22;1872;51.406;6.856;2022-12-18T13:06:50;2.30;99.90
3713;DHT22;1872;51.406;6.856;2022-12-18T13:09:17;2.20;99.90
3713;DHT22;1872;51.406;6.856;2022-12-18T13:11:45;2.20;99.90
3713;DHT22;1872;51.406;6.856;2022-12-18T13:14:40;2.20;99.90
3713;DHT22;1872;51.406;6.856;2022-12-18T13:17:38;2.10;99.90
3713;DHT22;1872;51.406;6.856;2022-12-18T13:20:05;2.10;99.90
3713;DHT22;1872;51.406;6.856;2022-12-18T13:22:35;2.00;99.90
3713;DHT22;1872;51.406;6.856;2022-12-18T13:25:02;2.00;99.90
3713;DHT22;1872;51.406;6.856;2022-12-18T13:38:43;1.90;99.90
3713;DHT22;1872;51.406;6.856;2022-12-18T13:43:54;1.80;99.90
3713;DHT22;1872;51.406;6.856;2022-12-18T13:49:17;1.80;99.90
3713;DHT22;1872;51.406;6.856;2022-12-18T13:51:54;1.80;99.90
3713;DHT22;1872;51.406;6.856;2022-12-18T13:54:36;1.80;99.90
3713;DHT22;1872;51.406;6.856;2022-12-18T13:57:04;1.70;99.90
3713;DHT22;1872;51.406;6.856;2022-12-18T13:59:37;1.80;99.90
3713;DHT22;1872;51.406;6.856;2022-12-18T14:02:24;1.80;99.90
3713;DHT22;1872;51.406;6.856;2022-12-18T14:04:50;1.70;99.90
3713;DHT22;1872;51.406;6.856;2022-12-18T14:07:25;1.70;99.90
3713;DHT22;1872;51.406;6.856;2022-12-18T14:09:59;1.70;99.90
3713;DHT22;1872;51.406;6.856;2022-12-18T14:12:28;1.80;99.90
3713;DHT22;1872;51.406;6.856;2022-12-18T14:20:24;2.40;99.90
3713;DHT22;1872;51.406;6.856;2022-12-18T14:22:52;2.30;99.90
3713;DHT22;1872;51.406;6.856;2022-12-18T14:25:20;2.20;99.90
3713;DHT22;1872;51.406;6.856;2022-12-18T14:27:51;2.00;99.90
3713;DHT22;1872;51.406;6.856;2022-12-18T14:35:38;1.80;99.90
3713;DHT22;1872;51.406;6.856;2022-12-18T14:40:45;1.70;99.90
3713;DHT22;1872;51.406;6.856;2022-12-18T14:43:11;1.70;99.90
3713;DHT22;1872;51.406;6.856;2022-12-18T14:45:43;1.70;99.90
3713;DHT22;1872;51.406;6.856;2022-12-18T14:50:38;1.60;99.90
3713;DHT22;1872;51.406;6.856;2022-12-18T14:53:17;1.60;99.90
3713;DHT22;1872;51.406;6.856;2022-12-18T14:55:47;1.60;99.90
3713;DHT22;1872;51.406;6.856;2022-12-18T14:58:16;1.60;99.90
3713;DHT22;1872;51.406;6.856;2022-12-18T15:00:43;1.50;99.90
3713;DHT22;1872;51.406;6.856;2022-12-18T15:03:09;1.60;99.90
3713;DHT22;1872;51.406;6.856;2022-12-18T15:05:35;1.60;99.90
3713;DHT22;1872;51.406;6.856;2022-12-18T15:08:02;1.60;99.90
3713;DHT22;1872;51.406;6.856;2022-12-18T15:10:30;1.50;99.90
3713;DHT22;1872;51.406;6.856;2022-12-18T15:20:56;1.50;99.90
3713;DHT22;1872;51.406;6.856;2022-12-18T15:23:51;1.50;99.90
3713;DHT22;1872;51.406;6.856;2022-12-18T15:26:20;1.50;99.90
3713;DHT22;1872;51.406;6.856;2022-12-18T15:33:43;1.50;99.90
3713;DHT22;1872;51.406;6.856;2022-12-18T15:36:14;1.50;99.90
3713;DHT22;1872;51.406;6.856;2022-12-18T15:38:46;1.50;99.90
3713;DHT22;1872;51.406;6.856;2022-12-18T15:41:17;1.50;99.90
3713;DHT22;1872;51.406;6.856;2022-12-18T15:43:44;1.50;99.90
3713;DHT22;1872;51.406;6.856;2022-12-18T15:46:19;1.40;99.90
3713;DHT22;1872;51.406;6.856;2022-12-18T15:48:52;1.40;99.90
3713;DHT22;1872;51.406;6.856;2022-12-18T15:51:20;1.40;99.90
3713;DHT22;1872;51.406;6.856;2022-12-18T15:53:52;1.30;99.90
3713;DHT22;1872;51.406;6.856;2022-12-18T15:56:19;1.30;99.90
3713;DHT22;1872;51.406;6.856;2022-12-18T15:59:13;1.30;99.90
3713;DHT22;1872;51.406;6.856;2022-12-18T16:01:39;1.30;99.90
3713;DHT22;1872;51.406;6.856;2022-12-18T16:04:05;1.20;99.90
3713;DHT22;1872;51.406;6.856;2022-12-18T16:06:31;1.20;99.90
3713;DHT22;1872;51.406;6.856;2022-12-18T16:08:57;1.20;99.90
3713;DHT22;1872;51.406;6.856;2022-12-18T16:11:30;1.20;99.90
3713;DHT22;1872;51.406;6.856;2022-12-18T16:14:18;1.20;99.90
3713;DHT22;1872;51.406;6.856;2022-12-18T16:16:50;1.10;99.90
3713;DHT22;1872;51.406;6.856;2022-12-18T16:19:16;1.10;99.90
3713;DHT22;1872;51.406;6.856;2022-12-18T16:21:45;1.10;99.90
3713;DHT22;1872;51.406;6.856;2022-12-18T16:24:23;1.10;99.90
3713;DHT22;1872;51.406;6.856;2022-12-18T16:26:51;1.00;99.90
3713;DHT22;1872;51.406;6.856;2022-12-18T16:29:17;1.00;99.90
3713;DHT22;1872;51.406;6.856;2022-12-18T16:31:46;1.00;99.90
3713;DHT22;1872;51.406;6.856;2022-12-18T16:34:28;0.90;99.90
3713;DHT22;1872;51.406;6.856;2022-12-18T16:36:58;0.90;99.90
3713;DHT22;1872;51.406;6.856;2022-12-18T16:39:25;0.90;99.90
3713;DHT22;1872;51.406;6.856;2022-12-18T16:41:50;0.90;99.90
3713;DHT22;1872;51.406;6.856;2022-12-18T16:44:18;0.90;99.90
3713;DHT22;1872;51.406;6.856;2022-12-18T16:46:47;0.90;99.90
3713;DHT22;1872;51.406;6.856;2022-12-18T16:49:14;0.90;99.90
3713;DHT22;1872;51.406;6.856;2022-12-18T16:51:41;0.90;99.90
3713;DHT22;1872;51.406;6.856;2022-12-18T16:54:07;0.90;99.90
3713;DHT22;1872;51.406;6.856;2022-12-18T16:56:33;0.90;99.90
3713;DHT22;1872;51.406;6.856;2022-12-18T16:59:02;0.80;99.90
3713;DHT22;1872;51.406;6.856;2022-12-18T17:01:29;0.80;99.90
3713;DHT22;1872;51.406;6.856;2022-12-18T17:03:59;0.80;99.90
3713;DHT22;1872;51.406;6.856;2022-12-18T17:06:32;0.80;99.90
3713;DHT22;1872;51.406;6.856;2022-12-18T17:09:03;0.80;99.90
3713;DHT22;1872;51.406;6.856;2022-12-18T17:11:31;0.80;99.90
3713;DHT22;1872;51.406;6.856;2022-12-18T17:14:04;0.80;99.90
3713;DHT22;1872;51.406;6.856;2022-12-18T17:16:30;0.70;99.90
3713;DHT22;1872;51.406;6.856;2022-12-18T17:18:56;0.80;99.90
3713;DHT22;1872;51.406;6.856;2022-12-18T17:21:29;0.80;99.90
3713;DHT22;1872;51.406;6.856;2022-12-18T17:23:58;0.80;99.90
3713;DHT22;1872;51.406;6.856;2022-12-18T17:26:27;0.80;99.90
3713;DHT22;1872;51.406;6.856;2022-12-18T17:28:55;0.80;99.90
3713;DHT22;1872;51.406;6.856;2022-12-18T17:31:22;0.80;99.90
3713;DHT22;1872;51.406;6.856;2022-12-18T17:33:51;0.80;99.90
3713;DHT22;1872;51.406;6.856;2022-12-18T17:36:20;0.80;99.90
3713;DHT22;1872;51.406;6.856;2022-12-18T17:38:55;0.80;99.90
3713;DHT22;1872;51.406;6.856;2022-12-18T17:41:24;0.80;99.90
3713;DHT22;1872;51.406;6.856;2022-12-18T17:43:58;0.80;99.90
3713;DHT22;1872;51.406;6.856;2022-12-18T17:46:25;0.70;99.90
3713;DHT22;1872;51.406;6.856;2022-12-18T17:48:51;0.70;99.90
3713;DHT22;1872;51.406;6.856;2022-12-18T17:51:21;0.70;99.90
3713;DHT22;1872;51.406;6.856;2022-12-18T17:53:47;0.70;99.90
3713;DHT22;1872;51.406;6.856;2022-12-18T17:56:15;0.70;99.90
3713;DHT22;1872;51.406;6.856;2022-12-18T17:58:42;0.70;99.90
3713;DHT22;1872;51.406;6.856;2022-12-18T18:01:08;0.70;99.90
3713;DHT22;1872;51.406;6.856;2022-12-18T18:03:37;0.70;99.90
3713;DHT22;1872;51.406;6.856;2022-12-18T18:06:03;0.70;99.90
3713;DHT22;1872;51.406;6.856;2022-12-18T18:08:29;0.70;99.90
3713;DHT22;1872;51.406;6.856;2022-12-18T18:10:56;0.60;99.90
3713;DHT22;1872;51.406;6.856;2022-12-18T18:13:45;0.60;99.90
3713;DHT22;1872;51.406;6.856;2022-12-18T18:16:32;0.60;99.90
3713;DHT22;1872;51.406;6.856;2022-12-18T18:19:04;0.60;99.90
3713;DHT22;1872;51.406;6.856;2022-12-18T18:21:30;0.60;99.90